Time;durP1;ratioP1;P1;durP2;ratioP2;P2;SDS_P1;SDS_P2;PMS_P1;PMS_P2;Temp;Humidity;BMP_temperature;BMP_pressure;BME280_temperature;BME280_humidity;BME280_pressure;Samples;Min_cycle;Max_cycle;Signal;HPM_P1;HPM_P2
2022/03/24 00:00:48;;;;;;;41.78;19.70;;;20.00;57.80;;;;;;4997825;28;20043;-70
2022/03/24 00:03:15;;;;;;;43.60;20.20;;;19.90;58.00;;;;;;5015976;28;20038;-70
2022/03/24 00:05:41;;;;;;;43.60;21.13;;;19.90;58.20;;;;;;4998554;28;20054;-70
2022/03/24 00:08:08;;;;;;;43.90;18.95;;;19.90;58.50;;;;;;4999343;28;20037;-70
2022/03/24 00:10:35;;;;;;;39.10;21.25;;;19.80;58.60;;;;;;4998988;28;20049;-71
2022/03/24 00:13:01;;;;;;;35.47;18.48;;;19.70;58.90;;;;;;4999179;28;20043;-70
2022/03/24 00:15:27;;;;;;;41.65;20.42;;;19.80;59.10;;;;;;4999895;28;20062;-70
2022/03/24 00:17:53;;;;;;;44.70;20.63;;;19.80;58.70;;;;;;5003376;28;20043;-70
2022/03/24 00:20:20;;;;;;;47.58;21.15;;;19.80;58.50;;;;;;4999045;28;20046;-70
2022/03/24 00:22:47;;;;;;;41.88;19.50;;;19.80;58.30;;;;;;4998920;28;20046;-70
2022/03/24 00:25:13;;;;;;;39.40;19.73;;;19.90;58.20;;;;;;5002814;28;20053;-70
2022/03/24 00:27:40;;;;;;;44.63;18.10;;;19.80;58.10;;;;;;5012249;28;20518;-70
2022/03/24 00:30:08;;;;;;;39.13;20.33;;;19.80;58.10;;;;;;5010033;28;20039;-70
2022/03/24 00:32:36;;;;;;;44.10;21.02;;;19.70;58.10;;;;;;5000127;28;20062;-70
2022/03/24 00:35:03;;;;;;;46.75;20.45;;;19.80;58.00;;;;;;4998079;28;20043;-71
2022/03/24 00:37:31;;;;;;;37.97;19.55;;;19.80;58.00;;;;;;4997471;28;20041;-70
2022/03/24 00:40:00;;;;;;;45.20;20.48;;;19.80;58.00;;;;;;4998328;28;20042;-71
2022/03/24 00:42:27;;;;;;;37.08;18.60;;;19.80;57.90;;;;;;4998499;28;20038;-73
2022/03/24 00:44:55;;;;;;;43.03;19.50;;;19.70;57.80;;;;;;4998102;28;20050;-72
2022/03/24 00:47:21;;;;;;;38.75;19.70;;;19.80;57.80;;;;;;5000672;28;20066;-71
2022/03/24 00:49:47;;;;;;;45.33;20.33;;;19.80;57.80;;;;;;5005661;28;20101;-71
2022/03/24 00:52:14;;;;;;;37.47;19.35;;;19.60;57.50;;;;;;5017893;28;20045;-72
2022/03/24 00:54:40;;;;;;;36.30;19.15;;;19.60;57.40;;;;;;5017766;28;20035;-71
2022/03/24 00:57:07;;;;;;;40.30;20.45;;;19.50;57.30;;;;;;5033772;28;20114;-71
2022/03/24 00:59:34;;;;;;;38.60;19.13;;;19.60;57.20;;;;;;5000259;28;20039;-72
2022/03/24 01:02:01;;;;;;;43.97;20.13;;;19.50;57.20;;;;;;4998323;28;20034;-71
2022/03/24 01:04:28;;;;;;;33.10;19.23;;;19.60;57.40;;;;;;4997302;28;20094;-71
2022/03/24 01:06:54;;;;;;;39.78;20.73;;;19.60;57.30;;;;;;5013189;28;20049;-71
2022/03/24 01:09:20;;;;;;;40.47;18.45;;;19.60;57.20;;;;;;4998214;28;20046;-71
2022/03/24 01:11:47;;;;;;;37.65;18.08;;;19.60;57.00;;;;;;4997378;28;20106;-71
2022/03/24 01:14:16;;;;;;;39.70;18.65;;;19.50;56.70;;;;;;5004387;28;20050;-71
2022/03/24 01:16:43;;;;;;;40.03;19.75;;;19.50;56.50;;;;;;5009401;28;20105;-71
2022/03/24 01:19:09;;;;;;;30.95;17.75;;;19.50;56.20;;;;;;4997283;28;20046;-71
2022/03/24 01:21:36;;;;;;;36.83;18.98;;;19.60;56.10;;;;;;5013532;28;20053;-71
2022/03/24 01:24:02;;;;;;;36.97;20.05;;;19.60;55.90;;;;;;4997355;28;20058;-71
2022/03/24 01:26:28;;;;;;;40.70;19.63;;;19.50;55.80;;;;;;5013375;28;20073;-72
2022/03/24 01:28:56;;;;;;;38.15;18.63;;;19.50;55.60;;;;;;4997335;28;20062;-71
2022/03/24 01:31:22;;;;;;;36.53;17.73;;;19.50;55.60;;;;;;4999915;28;20151;-72
2022/03/24 01:33:51;;;;;;;40.25;20.05;;;19.50;55.60;;;;;;4996076;28;20038;-71
2022/03/24 01:36:18;;;;;;;39.50;19.42;;;19.40;55.50;;;;;;4997706;28;20065;-71
2022/03/24 01:38:44;;;;;;;32.63;18.02;;;19.50;55.50;;;;;;4997675;28;20043;-72
2022/03/24 01:41:11;;;;;;;35.55;18.77;;;19.50;55.50;;;;;;4996892;28;20047;-71
2022/03/24 01:43:37;;;;;;;30.77;17.70;;;19.30;55.40;;;;;;4996262;28;20046;-71
2022/03/24 01:46:04;;;;;;;37.90;17.63;;;19.40;55.40;;;;;;5015599;28;20110;-71
2022/03/24 01:48:31;;;;;;;37.63;19.17;;;19.40;55.40;;;;;;5012148;28;20098;-71
2022/03/24 01:50:57;;;;;;;31.17;18.48;;;19.40;55.30;;;;;;4996434;28;20051;-71
2022/03/24 01:53:24;;;;;;;35.80;18.58;;;19.30;55.20;;;;;;4997104;28;20106;-72
2022/03/24 01:55:51;;;;;;;45.50;18.73;;;19.30;54.80;;;;;;4996931;28;20046;-71
2022/03/24 01:58:19;;;;;;;32.53;18.52;;;19.30;54.60;;;;;;4996066;28;20047;-71
2022/03/24 02:00:45;;;;;;;37.03;18.70;;;19.30;54.50;;;;;;5011702;28;20050;-72
2022/03/24 02:03:14;;;;;;;41.88;19.73;;;19.40;54.30;;;;;;4999273;28;20045;-71
2022/03/24 02:05:42;;;;;;;33.88;17.55;;;19.30;54.20;;;;;;5012957;28;20043;-71
2022/03/24 02:08:09;;;;;;;35.50;18.35;;;19.50;54.20;;;;;;4997335;28;20054;-71
2022/03/24 02:10:37;;;;;;;32.00;19.00;;;19.40;54.00;;;;;;4997461;28;20082;-70
2022/03/24 02:13:06;;;;;;;41.53;20.90;;;19.40;53.90;;;;;;4996123;28;20078;-72
2022/03/24 02:15:33;;;;;;;32.25;19.10;;;19.40;53.80;;;;;;5001843;28;20109;-72
2022/03/24 02:17:59;;;;;;;36.22;18.55;;;19.40;53.80;;;;;;5015922;28;20043;-71
2022/03/24 02:20:28;;;;;;;38.53;18.48;;;19.40;53.80;;;;;;5028103;28;20039;-71
2022/03/24 02:22:54;;;;;;;40.63;19.08;;;19.30;53.80;;;;;;5028550;28;20082;-71
2022/03/24 02:25:23;;;;;;;27.80;18.77;;;19.40;53.80;;;;;;4997169;28;20046;-71
2022/03/24 02:27:55;;;;;;;35.30;19.02;;;19.30;53.80;;;;;;4998726;28;20047;-71
2022/03/24 02:30:21;;;;;;;36.90;19.10;;;19.30;53.80;;;;;;5005993;28;20093;-72
2022/03/24 02:32:47;;;;;;;38.83;19.98;;;19.20;53.80;;;;;;5010456;28;20085;-71
2022/03/24 02:35:13;;;;;;;39.80;19.58;;;19.20;53.80;;;;;;5014872;28;20034;-70
2022/03/24 02:37:40;;;;;;;35.03;19.52;;;19.20;53.90;;;;;;5020538;28;20042;-71
2022/03/24 02:40:06;;;;;;;38.70;19.23;;;19.30;54.00;;;;;;5020670;28;20061;-71
2022/03/24 02:42:33;;;;;;;40.78;19.63;;;19.20;53.90;;;;;;5020324;28;20076;-71
2022/03/24 02:45:04;;;;;;;29.42;19.23;;;19.10;54.00;;;;;;5017422;28;20059;-71
2022/03/24 02:47:30;;;;;;;43.05;20.58;;;19.10;53.80;;;;;;5003479;28;20042;-70
2022/03/24 02:49:58;;;;;;;35.83;20.10;;;19.10;53.50;;;;;;5000302;28;20035;-71
2022/03/24 02:52:26;;;;;;;36.40;18.60;;;19.20;53.30;;;;;;5000540;28;20053;-71
2022/03/24 02:54:52;;;;;;;35.08;19.55;;;19.20;53.00;;;;;;5000969;28;20042;-71
2022/03/24 02:57:19;;;;;;;38.58;19.15;;;19.20;52.90;;;;;;5000488;28;20094;-71
2022/03/24 02:59:45;;;;;;;32.17;20.10;;;19.20;52.70;;;;;;5000617;28;20034;-72
2022/03/24 03:02:17;;;;;;;29.83;17.75;;;19.20;52.60;;;;;;5002030;28;20042;-71
2022/03/24 03:04:45;;;;;;;33.85;18.70;;;19.20;52.50;;;;;;5015356;28;20057;-71
2022/03/24 03:07:12;;;;;;;33.03;19.33;;;19.20;52.50;;;;;;5015640;28;20042;-71
2022/03/24 03:09:40;;;;;;;35.20;18.70;;;19.20;52.40;;;;;;4999959;28;20101;-71
2022/03/24 03:12:09;;;;;;;41.50;19.75;;;19.20;52.40;;;;;;5000292;28;20035;-71
2022/03/24 03:14:35;;;;;;;32.60;18.15;;;19.20;52.50;;;;;;5000210;28;20070;-71
2022/03/24 03:17:01;;;;;;;39.72;20.02;;;19.10;52.60;;;;;;5004667;28;20047;-71
2022/03/24 03:19:29;;;;;;;32.92;18.27;;;19.10;52.60;;;;;;4999911;28;20058;-71
2022/03/24 03:21:56;;;;;;;37.00;19.58;;;19.10;52.70;;;;;;5000298;28;20042;-71
2022/03/24 03:24:22;;;;;;;35.45;19.73;;;19.10;52.80;;;;;;5000284;28;20088;-71
2022/03/24 03:26:49;;;;;;;38.58;18.25;;;19.00;52.80;;;;;;4999967;28;20038;-71
2022/03/24 03:29:17;;;;;;;41.60;20.55;;;19.00;52.80;;;;;;5000184;28;20116;-71
2022/03/24 03:31:44;;;;;;;36.20;18.95;;;19.00;52.90;;;;;;5004507;28;20038;-71
2022/03/24 03:34:11;;;;;;;37.22;20.45;;;19.00;53.00;;;;;;5013174;28;20047;-71
2022/03/24 03:36:37;;;;;;;30.42;18.92;;;19.00;53.00;;;;;;5018360;28;20466;-71
2022/03/24 03:39:06;;;;;;;35.75;19.27;;;19.00;52.50;;;;;;5018740;28;20129;-71
2022/03/24 03:41:34;;;;;;;37.20;18.42;;;19.00;52.30;;;;;;5019395;28;20105;-72
2022/03/24 03:44:01;;;;;;;36.38;18.65;;;19.00;52.20;;;;;;5019461;28;20053;-71
2022/03/24 03:46:27;;;;;;;34.75;19.80;;;19.00;52.00;;;;;;5012202;28;20065;-72
2022/03/24 03:48:54;;;;;;;34.83;19.02;;;19.00;51.90;;;;;;5001169;28;20038;-71
2022/03/24 03:51:20;;;;;;;34.08;20.08;;;19.10;51.90;;;;;;5000139;28;20078;-71
2022/03/24 03:53:46;;;;;;;32.00;18.33;;;19.10;51.80;;;;;;4999682;28;20077;-71
2022/03/24 03:56:12;;;;;;;36.42;18.67;;;19.10;51.60;;;;;;5007048;28;20053;-71
2022/03/24 03:58:39;;;;;;;29.52;18.10;;;19.10;51.60;;;;;;5019216;28;20077;-71
2022/03/24 04:01:08;;;;;;;35.22;17.55;;;19.10;51.50;;;;;;5011097;28;20043;-72
2022/03/24 04:03:37;;;;;;;39.83;18.40;;;19.10;51.70;;;;;;5002485;28;20051;-71
2022/03/24 04:06:09;;;;;;;43.05;20.00;;;19.00;51.60;;;;;;5005538;28;20076;-71
2022/03/24 04:08:40;;;;;;;32.75;18.88;;;19.00;51.70;;;;;;5003851;28;20038;-71
2022/03/24 04:11:07;;;;;;;35.58;18.48;;;19.00;51.90;;;;;;4998070;28;20106;-71
2022/03/24 04:13:35;;;;;;;36.13;19.17;;;18.90;52.00;;;;;;4997612;28;20058;-72
2022/03/24 04:16:02;;;;;;;32.92;17.88;;;18.90;52.10;;;;;;5001019;28;20046;-71
2022/03/24 04:18:28;;;;;;;32.20;18.25;;;18.90;52.30;;;;;;5001357;28;20043;-71
2022/03/24 04:20:56;;;;;;;29.80;17.75;;;18.80;52.20;;;;;;4998898;28;20042;-71
2022/03/24 04:23:23;;;;;;;37.00;17.95;;;18.80;52.20;;;;;;4998605;28;20119;-71
2022/03/24 04:25:49;;;;;;;32.30;17.80;;;18.90;52.30;;;;;;5009021;28;20069;-71
2022/03/24 04:28:15;;;;;;;37.90;18.88;;;18.90;52.50;;;;;;5018328;28;20065;-71
2022/03/24 04:30:43;;;;;;;34.63;18.50;;;18.80;52.30;;;;;;5013780;28;20039;-71
2022/03/24 04:33:10;;;;;;;30.73;17.48;;;18.80;52.30;;;;;;5003658;28;20034;-71
2022/03/24 04:35:36;;;;;;;32.72;17.38;;;18.70;52.40;;;;;;5000371;28;20073;-72
2022/03/24 04:38:04;;;;;;;34.95;20.15;;;18.80;52.40;;;;;;5018268;28;20042;-71
2022/03/24 04:40:31;;;;;;;32.15;17.58;;;18.70;52.20;;;;;;5000739;28;20073;-71
2022/03/24 04:42:58;;;;;;;31.15;17.67;;;18.80;52.20;;;;;;4998303;28;20042;-71
2022/03/24 04:45:26;;;;;;;30.67;18.80;;;18.90;52.20;;;;;;4996105;28;20110;-71
2022/03/24 04:47:53;;;;;;;33.03;18.55;;;18.80;52.00;;;;;;4998225;28;20077;-71
2022/03/24 04:50:19;;;;;;;44.38;19.95;;;18.80;52.10;;;;;;4997676;28;20062;-72
2022/03/24 04:52:47;;;;;;;41.47;21.08;;;18.80;52.10;;;;;;5030558;28;20102;-71
2022/03/24 04:55:13;;;;;;;40.42;20.25;;;18.80;51.80;;;;;;4997105;28;20046;-71
2022/03/24 04:57:41;;;;;;;35.35;19.75;;;18.80;51.60;;;;;;4997823;28;20039;-70
2022/03/24 05:00:09;;;;;;;39.38;20.05;;;18.90;51.40;;;;;;4997794;28;20046;-71
2022/03/24 05:02:36;;;;;;;42.17;20.45;;;18.80;51.10;;;;;;4998418;28;20147;-72
2022/03/24 05:05:02;;;;;;;36.08;19.40;;;19.00;51.00;;;;;;4997431;28;20030;-72
2022/03/24 05:07:28;;;;;;;35.70;20.60;;;18.90;50.80;;;;;;4997408;28;20062;-71
2022/03/24 05:09:54;;;;;;;32.75;19.00;;;18.90;50.80;;;;;;4997288;28;20039;-71
2022/03/24 05:12:21;;;;;;;34.80;19.08;;;18.90;50.50;;;;;;4996820;28;20042;-71
2022/03/24 05:14:48;;;;;;;40.00;19.38;;;19.00;50.40;;;;;;4997272;28;20051;-72
2022/03/24 05:17:14;;;;;;;35.63;17.83;;;19.00;50.30;;;;;;5000563;28;20090;-72
2022/03/24 05:19:41;;;;;;;38.92;20.17;;;19.10;50.20;;;;;;4995662;28;20141;-71
2022/03/24 05:22:08;;;;;;;31.23;18.33;;;19.10;50.20;;;;;;4997295;28;20049;-71
2022/03/24 05:24:34;;;;;;;30.40;17.48;;;19.20;50.20;;;;;;4995833;28;20081;-71
2022/03/24 05:27:00;;;;;;;37.78;17.35;;;19.10;50.20;;;;;;4995966;28;20038;-71
2022/03/24 05:29:26;;;;;;;36.65;17.70;;;19.20;50.10;;;;;;4996494;28;20039;-71
2022/03/24 05:31:52;;;;;;;34.60;17.15;;;19.30;50.20;;;;;;5000285;28;20046;-72
2022/03/24 05:34:19;;;;;;;27.27;16.15;;;19.20;50.10;;;;;;4997323;28;20045;-71
2022/03/24 05:36:45;;;;;;;37.15;17.10;;;19.20;50.00;;;;;;4997010;28;20042;-71
2022/03/24 05:39:12;;;;;;;32.33;15.77;;;19.30;50.00;;;;;;4997057;28;20064;-71
2022/03/24 05:41:38;;;;;;;34.42;17.02;;;19.30;50.00;;;;;;4997157;28;20038;-72
2022/03/24 05:44:04;;;;;;;36.60;17.38;;;19.40;50.00;;;;;;4997120;28;20038;-71
2022/03/24 05:46:35;;;;;;;36.17;18.67;;;19.40;49.90;;;;;;4997912;28;20043;-71
2022/03/24 05:49:04;;;;;;;39.05;17.90;;;19.40;49.80;;;;;;5003724;28;20090;-71
2022/03/24 05:51:59;;;;;;;34.97;19.80;;;19.40;49.70;;;;;;4995037;28;20030;-72
2022/03/24 05:54:25;;;;;;;43.25;19.92;;;19.40;49.60;;;;;;4996914;28;20054;-71
2022/03/24 05:56:52;;;;;;;44.67;19.83;;;19.50;49.80;;;;;;4996769;28;20042;-71
2022/03/24 05:59:18;;;;;;;45.60;21.38;;;19.30;49.80;;;;;;4996518;28;20066;-71
2022/03/24 06:01:47;;;;;;;39.72;19.35;;;19.40;49.80;;;;;;4995822;28;20491;-71
2022/03/24 06:04:15;;;;;;;38.75;19.13;;;19.30;49.80;;;;;;4994087;28;20046;-70
2022/03/24 06:06:43;;;;;;;40.70;20.85;;;19.40;50.70;;;;;;4995982;28;20070;-72
2022/03/24 06:09:09;;;;;;;31.80;16.25;;;19.40;51.40;;;;;;4996326;28;20547;-69
2022/03/24 06:11:37;;;;;;;15.45;9.52;;;19.40;47.20;;;;;;4998183;28;20054;-69
2022/03/24 06:14:04;;;;;;;14.40;8.00;;;19.40;42.10;;;;;;4995996;28;20073;-70
2022/03/24 06:16:31;;;;;;;16.55;7.45;;;19.50;41.20;;;;;;4996058;28;20042;-70
2022/03/24 06:18:59;;;;;;;16.73;8.70;;;19.50;40.20;;;;;;4994809;28;20073;-70
2022/03/24 06:21:26;;;;;;;21.10;10.00;;;19.70;41.20;;;;;;4995518;28;20062;-69
2022/03/24 06:23:53;;;;;;;12.30;8.27;;;19.80;39.70;;;;;;4995451;28;20110;-70
2022/03/24 06:26:21;;;;;;;22.40;10.23;;;19.90;40.20;;;;;;4996225;28;20082;-70
2022/03/24 06:28:48;;;;;;;14.80;9.48;;;20.10;39.80;;;;;;5011736;28;20053;-70
2022/03/24 06:31:15;;;;;;;17.95;9.90;;;20.10;39.10;;;;;;4998567;28;20113;-70
2022/03/24 06:33:42;;;;;;;17.65;9.52;;;20.20;39.30;;;;;;4997438;28;20066;-72
2022/03/24 06:36:09;;;;;;;17.67;9.30;;;20.30;41.00;;;;;;4994121;28;20055;-71
2022/03/24 06:38:38;;;;;;;18.45;10.10;;;20.40;39.40;;;;;;4995935;28;20059;-72
2022/03/24 06:41:05;;;;;;;17.40;9.45;;;20.50;41.20;;;;;;4994864;28;20049;-72
2022/03/24 06:43:34;;;;;;;20.10;9.95;;;20.50;43.10;;;;;;4996358;28;20045;-71
2022/03/24 06:46:00;;;;;;;20.10;10.40;;;20.60;44.00;;;;;;4996528;28;20102;-71
2022/03/24 06:48:27;;;;;;;24.75;12.95;;;20.70;43.10;;;;;;4994631;28;20110;-69
2022/03/24 06:50:53;;;;;;;26.85;13.65;;;20.80;41.50;;;;;;4994297;28;20043;-71
2022/03/24 06:53:19;;;;;;;31.45;15.10;;;20.90;39.20;;;;;;5000499;28;20107;-71
2022/03/24 06:55:45;;;;;;;23.17;13.15;;;20.90;39.20;;;;;;4993919;28;20045;-70
2022/03/24 06:58:11;;;;;;;23.42;14.50;;;20.80;41.10;;;;;;4995840;28;20038;-70
2022/03/24 07:00:39;;;;;;;31.25;16.65;;;20.80;41.10;;;;;;4994393;28;20069;-70
2022/03/24 07:03:06;;;;;;;37.03;21.92;;;21.00;41.30;;;;;;4996011;28;20051;-70
2022/03/24 07:05:32;;;;;;;34.20;19.98;;;20.90;35.80;;;;;;4998902;28;20046;-72
2022/03/24 07:07:58;;;;;;;40.72;19.35;;;21.00;55.40;;;;;;4994694;28;20046;-70
2022/03/24 07:10:24;;;;;;;38.72;19.13;;;21.20;52.50;;;;;;4994929;28;20081;-70
2022/03/24 07:12:51;;;;;;;39.10;19.25;;;21.20;53.90;;;;;;4995876;28;20047;-72
2022/03/24 07:15:17;;;;;;;41.60;18.40;;;21.20;54.40;;;;;;5004893;28;20058;-70
2022/03/24 07:17:43;;;;;;;35.35;19.77;;;21.20;54.20;;;;;;5017700;28;20097;-72
2022/03/24 07:20:09;;;;;;;41.15;19.10;;;21.30;54.60;;;;;;5024215;28;20117;-70
2022/03/24 07:22:37;;;;;;;38.20;18.90;;;21.10;54.80;;;;;;4998110;28;20046;-72
2022/03/24 07:25:06;;;;;;;35.47;17.38;;;21.30;55.30;;;;;;5001497;28;20043;-71
2022/03/24 07:27:34;;;;;;;31.70;17.98;;;21.20;55.30;;;;;;4998986;28;20102;-69
2022/03/24 07:30:01;;;;;;;37.42;18.35;;;21.20;55.60;;;;;;5003465;28;20074;-69
2022/03/24 07:32:27;;;;;;;37.60;17.80;;;21.30;55.60;;;;;;4998809;28;20039;-71
2022/03/24 07:34:53;;;;;;;34.78;19.58;;;21.20;55.70;;;;;;5002612;28;20098;-72
2022/03/24 07:37:20;;;;;;;43.15;18.70;;;21.20;56.00;;;;;;5018804;28;20034;-72
2022/03/24 07:39:46;;;;;;;33.63;17.05;;;21.30;56.60;;;;;;4996777;28;20039;-70
2022/03/24 07:42:14;;;;;;;33.70;17.25;;;21.20;56.80;;;;;;4998453;28;20034;-69
2022/03/24 07:44:40;;;;;;;38.22;16.90;;;21.20;56.60;;;;;;4997154;28;20085;-69
2022/03/24 07:47:07;;;;;;;36.05;17.98;;;21.20;56.60;;;;;;4997819;28;20043;-69
2022/03/24 07:49:33;;;;;;;30.08;16.48;;;21.30;56.70;;;;;;4998644;28;20053;-70
2022/03/24 07:52:03;;;;;;;32.75;14.00;;;21.30;56.80;;;;;;4998607;28;20038;-71
2022/03/24 07:55:08;;;;;;;26.10;14.65;;;21.20;57.10;;;;;;5002294;28;20050;-69
2022/03/24 07:57:34;;;;;;;17.13;10.45;;;21.30;58.00;;;;;;4907424;29;20489;-69
2022/03/24 08:00:00;;;;;;;20.02;11.60;;;21.30;47.20;;;;;;5010975;28;20053;-70
2022/03/24 08:02:27;;;;;;;14.82;7.55;;;21.40;42.50;;;;;;4996854;28;20043;-69
2022/03/24 08:04:53;;;;;;;8.70;5.70;;;21.40;41.10;;;;;;4998380;28;20037;-69
2022/03/24 08:07:20;;;;;;;12.05;6.05;;;21.50;39.50;;;;;;4996508;28;20049;-70
2022/03/24 08:09:48;;;;;;;15.43;7.50;;;21.60;38.80;;;;;;4998270;28;20062;-71
2022/03/24 08:12:14;;;;;;;17.95;11.68;;;21.70;38.20;;;;;;4997377;28;20061;-72
2022/03/24 08:14:40;;;;;;;20.05;12.13;;;21.80;50.10;;;;;;5000105;28;20050;-72
2022/03/24 08:17:06;;;;;;;17.67;10.38;;;21.90;52.80;;;;;;5001172;28;20045;-71
2022/03/24 08:19:32;;;;;;;18.63;11.55;;;21.80;52.80;;;;;;4979855;28;20099;-70
2022/03/24 08:21:59;;;;;;;19.80;12.80;;;21.80;52.60;;;;;;4992838;28;20073;-72
2022/03/24 08:24:25;;;;;;;21.55;10.93;;;21.90;45.90;;;;;;5001574;28;20080;-73
2022/03/24 08:26:51;;;;;;;21.73;9.82;;;21.90;51.80;;;;;;4996609;28;20062;-71
2022/03/24 08:29:17;;;;;;;18.98;10.85;;;22.00;52.20;;;;;;4997187;28;20043;-72
2022/03/24 08:31:47;;;;;;;18.45;10.88;;;21.90;49.90;;;;;;4996993;28;20142;-70
2022/03/24 08:34:14;;;;;;;21.05;10.65;;;21.90;47.20;;;;;;4996362;28;20050;-71
2022/03/24 08:36:40;;;;;;;17.30;8.48;;;21.80;43.40;;;;;;4998567;28;20100;-72
2022/03/24 08:39:06;;;;;;;12.45;7.05;;;21.80;38.20;;;;;;4998228;28;20070;-70
2022/03/24 08:41:32;;;;;;;21.85;12.65;;;21.70;35.80;;;;;;4999512;28;20057;-70
2022/03/24 08:43:58;;;;;;;17.73;10.90;;;21.80;35.70;;;;;;4999629;28;20107;-73
2022/03/24 08:46:25;;;;;;;15.07;9.80;;;21.70;33.80;;;;;;4997244;28;20066;-72
2022/03/24 08:48:52;;;;;;;20.55;12.65;;;21.70;32.90;;;;;;4997652;28;20118;-70
2022/03/24 08:51:19;;;;;;;25.45;14.02;;;21.70;33.20;;;;;;4994519;28;20050;-71
2022/03/24 08:53:47;;;;;;;23.95;11.93;;;21.70;29.70;;;;;;4998662;28;20047;-72
2022/03/24 08:56:13;;;;;;;26.98;13.55;;;21.60;30.70;;;;;;4997066;28;20077;-70
2022/03/24 08:58:39;;;;;;;18.48;11.95;;;21.50;30.60;;;;;;4997315;28;20062;-70
2022/03/24 09:01:05;;;;;;;19.50;13.32;;;21.50;32.20;;;;;;4994378;28;20054;-71
2022/03/24 09:03:31;;;;;;;21.40;14.52;;;21.50;29.70;;;;;;4996940;28;20110;-70
2022/03/24 09:05:57;;;;;;;18.92;10.57;;;21.40;31.00;;;;;;4998584;28;20027;-71
2022/03/24 09:08:23;;;;;;;22.60;11.07;;;21.40;38.00;;;;;;4995775;28;20038;-71
2022/03/24 09:10:51;;;;;;;20.80;10.90;;;21.40;35.00;;;;;;4999125;28;20065;-73
2022/03/24 09:13:18;;;;;;;19.65;11.43;;;21.50;39.30;;;;;;5000795;28;20050;-71
2022/03/24 09:15:45;;;;;;;16.88;10.10;;;21.60;41.10;;;;;;4994127;28;20053;-72
2022/03/24 09:18:12;;;;;;;19.23;10.60;;;21.50;40.70;;;;;;4998160;28;20043;-71
2022/03/24 09:20:38;;;;;;;19.48;10.18;;;21.60;41.60;;;;;;4996753;28;20081;-71
2022/03/24 09:23:05;;;;;;;24.00;12.30;;;21.60;41.30;;;;;;4996597;28;20054;-72
2022/03/24 09:25:56;;;;;;;18.45;9.15;;;21.60;42.00;;;;;;4998211;28;20034;-73
2022/03/24 09:28:24;;;;;;;24.80;12.13;;;21.50;41.80;;;;;;4996170;28;20042;-71
2022/03/24 09:30:51;;;;;;;18.02;8.52;;;21.50;42.00;;;;;;5010484;28;20034;-70
2022/03/24 09:33:21;;;;;;;20.23;10.25;;;21.50;42.60;;;;;;5016310;28;20050;-71
2022/03/24 09:35:48;;;;;;;21.35;11.48;;;21.60;41.60;;;;;;5016596;28;20064;-71
2022/03/24 09:38:14;;;;;;;18.80;10.07;;;21.50;42.20;;;;;;5023432;28;20042;-71
2022/03/24 09:40:41;;;;;;;23.80;10.35;;;21.60;40.90;;;;;;4996706;28;20076;-71
2022/03/24 09:43:08;;;;;;;18.23;9.60;;;21.60;43.20;;;;;;4996484;28;20058;-71
2022/03/24 09:45:34;;;;;;;18.33;9.70;;;21.50;41.60;;;;;;4996776;28;20043;-71
2022/03/24 09:48:01;;;;;;;18.42;7.07;;;21.60;42.20;;;;;;4996997;28;20129;-71
2022/03/24 09:50:28;;;;;;;10.82;7.45;;;21.50;42.90;;;;;;4996875;28;20050;-72
2022/03/24 09:52:56;;;;;;;13.20;7.45;;;21.60;42.70;;;;;;4996290;28;20047;-71
2022/03/24 09:55:22;;;;;;;19.05;8.77;;;21.60;43.10;;;;;;4996674;28;20085;-71
2022/03/24 09:57:49;;;;;;;25.05;9.02;;;21.60;43.00;;;;;;4998208;28;20047;-71
2022/03/24 10:00:16;;;;;;;31.20;10.98;;;21.70;44.00;;;;;;4996656;28;20039;-72
2022/03/24 10:02:42;;;;;;;16.35;9.75;;;21.60;42.40;;;;;;4996498;28;20042;-70
2022/03/24 10:05:17;;;;;;;17.55;11.68;;;21.60;41.70;;;;;;4995542;28;20043;-70
2022/03/24 10:07:46;;;;;;;20.77;11.10;;;21.50;39.60;;;;;;4996444;28;20884;-71
2022/03/24 10:10:26;;;;;;;26.40;11.95;;;21.70;44.20;;;;;;4996172;28;20035;-71
2022/03/24 10:12:53;;;;;;;18.85;10.20;;;21.60;43.80;;;;;;4996145;28;20057;-71
2022/03/24 10:15:19;;;;;;;19.48;11.30;;;21.60;41.80;;;;;;4994937;28;20053;-70
2022/03/24 10:17:53;;;;;;;20.23;10.90;;;21.70;42.80;;;;;;4996567;28;20066;-71
2022/03/24 10:20:21;;;;;;;13.90;9.05;;;21.50;44.30;;;;;;4991896;28;20050;-71
2022/03/24 10:23:06;;;;;;;14.68;8.50;;;21.70;35.60;;;;;;4996419;28;20114;-71
2022/03/24 10:25:40;;;;;;;11.07;7.95;;;21.60;34.90;;;;;;4996011;28;20081;-70
2022/03/24 10:28:14;;;;;;;17.77;9.93;;;21.80;36.30;;;;;;4998580;28;20049;-70
2022/03/24 10:30:47;;;;;;;20.05;12.38;;;21.70;35.70;;;;;;4996189;28;20061;-70
2022/03/24 10:33:25;;;;;;;;;;;21.80;33.70;;;;;;4995205;28;20069;-70
2022/03/24 10:36:30;;;;;;;15.50;7.88;;;21.80;35.30;;;;;;5000723;28;19910;-70
2022/03/24 10:39:04;;;;;;;19.05;9.68;;;21.90;38.20;;;;;;5013394;28;20078;-70
2022/03/24 10:41:36;;;;;;;13.65;8.43;;;21.90;39.80;;;;;;4976826;29;20071;-70
2022/03/24 10:44:11;;;;;;;16.23;9.53;;;21.90;39.30;;;;;;4997225;28;20081;-70
2022/03/24 10:46:41;;;;;;;21.13;12.90;;;22.00;37.90;;;;;;4994995;28;20284;-71
2022/03/24 10:49:15;;;;;;;15.45;10.05;;;22.10;38.20;;;;;;4995887;28;20043;-71
2022/03/24 10:51:47;;;;;;;17.13;10.82;;;22.40;46.10;;;;;;4997046;28;20039;-70
2022/03/24 10:54:18;;;;;;;21.98;10.13;;;22.80;43.10;;;;;;4995163;28;20042;-71
2022/03/24 10:56:57;;;;;;;22.00;11.93;;;22.60;37.80;;;;;;4999104;28;20106;-71
2022/03/24 10:59:27;;;;;;;18.67;12.40;;;22.50;33.80;;;;;;5005045;28;20100;-70
2022/03/24 11:01:55;;;;;;;21.15;10.52;;;22.40;31.20;;;;;;5018279;28;20082;-70
2022/03/24 11:04:21;;;;;;;27.27;13.95;;;22.30;32.50;;;;;;4999879;28;20047;-69
2022/03/24 11:06:52;;;;;;;22.67;12.02;;;22.30;31.70;;;;;;4999500;28;20047;-69
2022/03/24 11:09:23;;;;;;;21.25;12.80;;;22.20;32.60;;;;;;4998995;28;20074;-70
2022/03/24 11:12:26;;;;;;;44.95;18.42;;;22.20;32.70;;;;;;4998634;28;20058;-69
2022/03/24 11:14:58;;;;;;;25.30;13.38;;;22.30;32.90;;;;;;4998807;28;20102;-69
2022/03/24 11:17:26;;;;;;;20.73;12.30;;;22.20;33.20;;;;;;5001768;28;20042;-70
2022/03/24 11:20:00;;;;;;;25.33;12.77;;;22.20;34.20;;;;;;4999577;28;20052;-70
2022/03/24 11:22:52;;;;;;;21.10;12.05;;;22.20;34.50;;;;;;5003740;28;20042;-71
2022/03/24 11:25:20;;;;;;;19.60;8.90;;;22.10;34.10;;;;;;5018347;28;20034;-69
2022/03/24 11:27:48;;;;;;;19.40;12.93;;;22.10;30.20;;;;;;5012315;28;20035;-69
2022/03/24 11:30:15;;;;;;;30.55;13.98;;;22.00;28.90;;;;;;5001469;28;20111;-72
2022/03/24 11:32:44;;;;;;;26.60;12.23;;;22.00;30.40;;;;;;4996978;28;20073;-71
2022/03/24 11:35:11;;;;;;;27.90;12.00;;;22.00;41.30;;;;;;4999589;28;20070;-69
2022/03/24 11:37:39;;;;;;;17.48;7.30;;;22.00;39.30;;;;;;5006367;28;20039;-70
2022/03/24 11:40:11;;;;;;;26.42;12.48;;;22.00;42.50;;;;;;4999055;28;20039;-70
2022/03/24 11:42:53;;;;;;;20.15;10.75;;;22.00;41.10;;;;;;5002242;28;20038;-71
2022/03/24 11:45:38;;;;;;;32.55;14.20;;;22.00;42.00;;;;;;5000932;28;20042;-70
2022/03/24 11:48:07;;;;;;;19.30;11.98;;;22.10;42.70;;;;;;5006276;28;20131;-71
2022/03/24 11:50:47;;;;;;;15.30;10.23;;;22.10;42.70;;;;;;4998529;28;20074;-69
2022/03/24 11:53:28;;;;;;;29.65;11.95;;;22.10;42.70;;;;;;4998475;28;20074;-70
2022/03/24 11:56:03;;;;;;;38.25;13.85;;;22.10;41.00;;;;;;4998845;28;20042;-69
2022/03/24 11:58:36;;;;;;;24.92;10.63;;;22.10;43.40;;;;;;5006089;28;20115;-70
2022/03/24 12:01:20;;;;;;;22.52;12.82;;;22.10;42.40;;;;;;5016046;28;20054;-69
2022/03/24 12:03:48;;;;;;;31.13;11.38;;;21.90;42.00;;;;;;5007862;28;20074;-69
2022/03/24 12:06:18;;;;;;;22.38;13.13;;;22.00;42.40;;;;;;4997692;28;20034;-70
2022/03/24 12:08:50;;;;;;;25.30;11.38;;;21.90;40.70;;;;;;4998540;28;20043;-70
2022/03/24 12:11:35;;;;;;;30.10;11.15;;;21.90;46.00;;;;;;4998034;28;20039;-68
2022/03/24 12:14:07;;;;;;;21.80;11.60;;;21.90;44.90;;;;;;5005100;28;20055;-69
2022/03/24 12:16:38;;;;;;;18.67;5.83;;;21.90;42.20;;;;;;4997920;28;20054;-71
2022/03/24 12:19:05;;;;;;;23.70;6.63;;;21.70;45.60;;;;;;4998633;28;20066;-70
2022/03/24 12:21:33;;;;;;;21.52;10.93;;;21.80;44.10;;;;;;4998852;28;20105;-69
2022/03/24 12:24:02;;;;;;;15.98;7.82;;;21.80;42.60;;;;;;4997595;28;20055;-69
2022/03/24 12:26:36;;;;;;;16.55;8.95;;;21.80;43.60;;;;;;4998187;28;20073;-69
2022/03/24 12:29:11;;;;;;;24.85;10.27;;;21.80;41.90;;;;;;5001544;28;20038;-69
2022/03/24 12:32:01;;;;;;;14.05;7.78;;;21.90;44.90;;;;;;4998600;28;20039;-69
2022/03/24 12:34:29;;;;;;;24.13;10.73;;;21.90;42.70;;;;;;4998100;28;20061;-69